createdAt,value
2023-05-16T00:01:41.501Z,100111.63
2023-05-16T00:04:09.209Z,100108.67
2023-05-16T00:06:36.618Z,100109.64
2023-05-16T00:09:04.225Z,100107.29
2023-05-16T00:11:31.730Z,100111.34
2023-05-16T00:13:59.074Z,100111.88
2023-05-16T00:16:29.644Z,100115.15
2023-05-16T00:19:01.502Z,100116.85
2023-05-16T00:21:28.947Z,100121.40
2023-05-16T00:23:56.271Z,100122.87
2023-05-16T00:26:23.696Z,100125.05
2023-05-16T00:28:50.912Z,100121.66
2023-05-16T00:31:18.448Z,100125.48
2023-05-16T00:33:46.500Z,100126.70
2023-05-16T00:36:13.848Z,100122.55
2023-05-16T00:38:41.316Z,100118.62
2023-05-16T00:41:08.747Z,100119.23
2023-05-16T00:43:37.484Z,100123.48
2023-05-16T00:46:04.935Z,100122.13
2023-05-16T00:48:32.862Z,100122.95
2023-05-16T00:51:01.563Z,100123.51
2023-05-16T00:53:28.908Z,100124.59
2023-05-16T00:55:57.776Z,100122.95
2023-05-16T00:58:25.143Z,100131.88
2023-05-16T01:00:52.962Z,100127.39
2023-05-16T01:03:20.696Z,100132.41
2023-05-16T01:05:48.340Z,100136.84
2023-05-16T01:08:15.636Z,100136.56
2023-05-16T01:11:08.495Z,100131.98
2023-05-16T01:13:57.676Z,100127.14
2023-05-16T01:16:38.145Z,100122.90
2023-05-16T01:19:21.665Z,100125.55
2023-05-16T01:21:53.384Z,100120.45
2023-05-16T01:24:28.185Z,100119.48
2023-05-16T01:26:55.611Z,100119.16
2023-05-16T01:29:22.888Z,100122.22
2023-05-16T01:31:50.196Z,100123.06
2023-05-16T01:34:19.049Z,100125.20
2023-05-16T01:37:01.196Z,100121.27
2023-05-16T01:39:39.566Z,100122.42
2023-05-16T01:42:13.092Z,100124.55
2023-05-16T01:44:52.742Z,100122.95
2023-05-16T01:47:21.618Z,100123.05
2023-05-16T01:49:58.488Z,100119.69
2023-05-16T01:52:41.009Z,100121.55
2023-05-16T01:55:15.354Z,100122.84
2023-05-16T01:57:42.659Z,100121.38
2023-05-16T02:00:10.579Z,100120.66
2023-05-16T02:02:41.384Z,100122.84
2023-05-16T02:05:09.853Z,100124.59
2023-05-16T02:07:37.327Z,100124.70
2023-05-16T02:10:05.241Z,100127.09
2023-05-16T02:12:36.824Z,100125.84
2023-05-16T02:15:04.348Z,100126.98
2023-05-16T02:17:32.218Z,100129.64
2023-05-16T02:20:06.956Z,100126.20
2023-05-16T02:22:34.320Z,100132.09
2023-05-16T02:25:02.306Z,100134.72
2023-05-16T02:27:30.018Z,100134.43
2023-05-16T02:29:58.048Z,100139.41
2023-05-16T02:32:26.574Z,100137.34
2023-05-16T02:34:53.916Z,100132.34
2023-05-16T02:37:21.479Z,100135.23
2023-05-16T02:39:49.939Z,100135.68
2023-05-16T02:42:17.472Z,100139.34
2023-05-16T02:44:45.369Z,100138.52
2023-05-16T02:47:12.672Z,100138.98
2023-05-16T02:49:39.934Z,100138.08
2023-05-16T02:52:08.033Z,100138.74
2023-05-16T02:54:35.976Z,100132.89
2023-05-16T02:57:03.475Z,100133.73
2023-05-16T02:59:31.101Z,100134.11
2023-05-16T03:01:58.561Z,100133.09
2023-05-16T03:04:27.377Z,100134.02
2023-05-16T03:06:54.837Z,100132.34
2023-05-16T03:09:22.187Z,100130.37
2023-05-16T03:11:49.611Z,100129.41
2023-05-16T03:14:20.028Z,100133.30
2023-05-16T03:16:47.529Z,100135.45
2023-05-16T03:19:15.105Z,100137.11
2023-05-16T03:21:42.528Z,100135.44
2023-05-16T03:24:09.823Z,100136.17
2023-05-16T03:26:37.229Z,100134.86
2023-05-16T03:29:04.690Z,100130.77
2023-05-16T03:31:32.266Z,100132.40
2023-05-16T03:33:59.769Z,100133.83
2023-05-16T03:36:27.200Z,100132.91
2023-05-16T03:38:54.677Z,100129.91
2023-05-16T03:41:22.487Z,100128.27
2023-05-16T03:43:49.962Z,100129.90
2023-05-16T03:46:17.312Z,100129.14
2023-05-16T03:48:44.851Z,100133.66
2023-05-16T03:51:12.181Z,100135.68
2023-05-16T03:53:39.593Z,100133.31
2023-05-16T03:56:07.032Z,100134.67
2023-05-16T03:58:34.530Z,100130.83
2023-05-16T04:01:01.865Z,100132.10
2023-05-16T04:03:30.474Z,100136.78
2023-05-16T04:05:58.215Z,100141.83
2023-05-16T04:08:27.130Z,100144.38
2023-05-16T04:10:54.883Z,100146.00
2023-05-16T04:13:22.288Z,100145.98
2023-05-16T04:15:49.771Z,100146.38
2023-05-16T04:18:19.712Z,100151.11
2023-05-16T04:20:47.892Z,100152.91
2023-05-16T04:23:15.262Z,100151.73
2023-05-16T04:25:43.209Z,100152.30
2023-05-16T04:28:10.784Z,100150.69
2023-05-16T04:30:38.584Z,100154.30
2023-05-16T04:33:06.382Z,100155.05
2023-05-16T04:35:34.138Z,100155.10
2023-05-16T04:38:02.149Z,100161.91
2023-05-16T04:40:29.602Z,100163.69
2023-05-16T04:42:59.397Z,100157.01
2023-05-16T04:45:27.039Z,100158.05
2023-05-16T04:47:54.728Z,100164.99
2023-05-16T04:50:22.062Z,100159.91
2023-05-16T04:52:49.505Z,100164.44
2023-05-16T04:55:17.619Z,100160.09
2023-05-16T04:57:45.580Z,100163.66
2023-05-16T05:00:13.649Z,100166.27
2023-05-16T05:02:41.149Z,100163.70
2023-05-16T05:05:09.191Z,100166.69
2023-05-16T05:07:36.491Z,100165.64
2023-05-16T05:10:03.968Z,100169.79
2023-05-16T05:12:31.380Z,100165.95
2023-05-16T05:14:58.503Z,100163.56
2023-05-16T05:17:25.938Z,100161.45
2023-05-16T05:19:53.495Z,100166.20
2023-05-16T05:22:20.945Z,100166.59
2023-05-16T05:24:48.315Z,100165.84
2023-05-16T05:27:16.206Z,100164.38
2023-05-16T05:29:43.507Z,100164.35
2023-05-16T05:32:10.997Z,100162.94
2023-05-16T05:34:38.372Z,100165.77
2023-05-16T05:37:05.883Z,100165.30
2023-05-16T05:39:33.397Z,100167.59
2023-05-16T05:42:01.705Z,100165.30
2023-05-16T05:44:29.322Z,100165.52
2023-05-16T05:46:57.690Z,100161.30
2023-05-16T05:49:25.943Z,100164.67
2023-05-16T05:51:53.483Z,100169.67
2023-05-16T05:54:20.856Z,100168.75
2023-05-16T05:56:48.166Z,100172.89
2023-05-16T05:59:15.688Z,100174.10
2023-05-16T06:01:44.693Z,100172.70
2023-05-16T06:04:12.154Z,100173.98
2023-05-16T06:06:40.431Z,100174.84
2023-05-16T06:09:07.802Z,100174.54
2023-05-16T06:11:35.314Z,100174.81
2023-05-16T06:14:03.632Z,100175.32
2023-05-16T06:16:56.639Z,100174.66
2023-05-16T06:19:39.326Z,100178.86
2023-05-16T06:22:07.138Z,100178.19
2023-05-16T06:24:34.962Z,100178.38
2023-05-16T06:27:02.355Z,100174.01
2023-05-16T06:29:29.678Z,100169.14
2023-05-16T06:31:57.175Z,100171.02
2023-05-16T06:34:28.260Z,100176.17
2023-05-16T06:36:55.653Z,100175.44
2023-05-16T06:39:23.142Z,100174.88
2023-05-16T06:41:50.554Z,100173.47
2023-05-16T06:44:17.858Z,100175.44
2023-05-16T06:46:45.264Z,100174.13
2023-05-16T06:49:12.603Z,100175.43
2023-05-16T06:51:40.771Z,100176.10
2023-05-16T06:54:08.190Z,100181.14
2023-05-16T06:56:35.776Z,100181.45
2023-05-16T06:59:03.280Z,100180.61
2023-05-16T07:01:30.774Z,100181.14
2023-05-16T07:03:58.402Z,100187.63
2023-05-16T07:06:26.946Z,100188.27
2023-05-16T07:08:54.227Z,100185.82
2023-05-16T07:11:21.708Z,100191.34
2023-05-16T07:13:49.077Z,100191.41
2023-05-16T07:16:19.408Z,100193.64
2023-05-16T07:18:46.799Z,100195.86
2023-05-16T07:21:14.169Z,100191.84
2023-05-16T07:23:41.938Z,100195.59
2023-05-16T07:26:09.401Z,100195.20
2023-05-16T07:28:37.020Z,100193.70
2023-05-16T07:31:04.656Z,100195.27
2023-05-16T07:33:32.176Z,100195.03
2023-05-16T07:36:12.116Z,100189.33
2023-05-16T07:38:43.337Z,100196.20
2023-05-16T07:41:10.800Z,100197.36
2023-05-16T07:43:38.130Z,100192.77
2023-05-16T07:46:05.853Z,100188.66
2023-05-16T07:48:33.192Z,100180.69
2023-05-16T07:51:00.593Z,100183.41
2023-05-16T07:53:27.984Z,100186.23
2023-05-16T07:55:55.770Z,100180.45
2023-05-16T07:58:23.116Z,100175.81
2023-05-16T08:00:51.177Z,100170.43
2023-05-16T08:03:18.755Z,100179.77
2023-05-16T08:05:46.244Z,100181.67
2023-05-16T08:08:13.927Z,100181.56
2023-05-16T08:10:41.456Z,100183.83
2023-05-16T08:13:09.065Z,100189.55
2023-05-16T08:15:36.456Z,100190.26
2023-05-16T08:18:04.080Z,100178.04
2023-05-16T08:20:31.401Z,100175.70
2023-05-16T08:22:59.078Z,100180.35
2023-05-16T08:25:27.169Z,100177.13
2023-05-16T08:27:54.722Z,100170.41
2023-05-16T08:30:22.086Z,100170.73
2023-05-16T08:32:49.546Z,100181.63
2023-05-16T08:35:17.102Z,100184.25
2023-05-16T08:37:44.601Z,100175.17
2023-05-16T08:40:12.970Z,100173.62
2023-05-16T08:42:41.503Z,100172.79
2023-05-16T08:45:10.922Z,100176.17
2023-05-16T08:47:38.333Z,100182.41
2023-05-16T08:50:06.414Z,100181.25
2023-05-16T08:52:34.046Z,100181.84
2023-05-16T08:55:10.943Z,100175.06
2023-05-16T08:57:39.017Z,100175.96
2023-05-16T09:00:13.058Z,100180.62
2023-05-16T09:02:44.952Z,100176.25
2023-05-16T09:05:13.818Z,100169.02
2023-05-16T09:07:42.357Z,100159.09
2023-05-16T09:10:10.695Z,100159.95
2023-05-16T09:12:39.974Z,100157.02
2023-05-16T09:15:09.278Z,100163.33
2023-05-16T09:17:42.622Z,100157.98
2023-05-16T09:20:15.477Z,100158.25
2023-05-16T09:22:56.723Z,100154.37
2023-05-16T09:25:30.929Z,100156.77
2023-05-16T09:28:00.391Z,100153.17
2023-05-16T09:30:30.436Z,100150.38
2023-05-16T09:32:58.113Z,100154.09
2023-05-16T09:35:39.929Z,100155.86
2023-05-16T09:38:15.724Z,100157.63
2023-05-16T09:40:43.105Z,100154.15
2023-05-16T09:43:10.638Z,100154.63
2023-05-16T09:45:38.173Z,100158.65
2023-05-16T09:48:07.181Z,100160.29
2023-05-16T09:50:35.328Z,100161.86
2023-05-16T09:53:03.106Z,100156.86
2023-05-16T09:55:31.197Z,100157.88
2023-05-16T09:57:58.540Z,100163.55
2023-05-16T10:00:31.588Z,100162.30
2023-05-16T10:03:01.490Z,100143.33
2023-05-16T10:05:31.812Z,100148.26
2023-05-16T10:07:59.121Z,100148.09
2023-05-16T10:10:26.670Z,100144.63
2023-05-16T10:12:54.117Z,100144.45
2023-05-16T10:15:22.451Z,100138.41
2023-05-16T10:17:52.755Z,100143.33
2023-05-16T10:20:20.227Z,100145.70
2023-05-16T10:22:47.615Z,100139.73
2023-05-16T10:25:32.707Z,100132.98
2023-05-16T10:28:00.561Z,100143.71
2023-05-16T10:30:27.886Z,100148.56
2023-05-16T10:32:55.234Z,100145.30
2023-05-16T10:35:22.780Z,100160.27
2023-05-16T10:37:50.781Z,100157.54
2023-05-16T10:40:18.360Z,100156.95
2023-05-16T10:43:23.122Z,100158.19
2023-05-16T10:46:10.859Z,100161.77
2023-05-16T10:48:39.721Z,100154.71
2023-05-16T10:51:34.527Z,100156.03
2023-05-16T10:54:10.934Z,100152.71
2023-05-16T10:56:38.622Z,100157.33
2023-05-16T10:59:26.390Z,100165.38
2023-05-16T11:01:56.472Z,100158.23
2023-05-16T11:04:24.191Z,100159.19
2023-05-16T11:06:53.295Z,100155.55
2023-05-16T11:09:26.884Z,100151.48
2023-05-16T11:11:59.097Z,100153.58
2023-05-16T11:14:32.902Z,100153.36
2023-05-16T11:17:08.520Z,100153.20
2023-05-16T11:19:45.631Z,100153.11
2023-05-16T11:22:19.214Z,100155.72
2023-05-16T11:24:51.424Z,100154.14
2023-05-16T11:27:31.830Z,100160.70
2023-05-16T11:30:03.322Z,100161.27
2023-05-16T11:32:34.633Z,100163.27
2023-05-16T11:35:05.410Z,100166.30
2023-05-16T11:37:32.831Z,100160.27
2023-05-16T11:40:04.565Z,100144.89
2023-05-16T11:42:34.574Z,100149.54
2023-05-16T11:45:13.057Z,100137.42
2023-05-16T11:47:40.876Z,100135.47
2023-05-16T11:50:13.245Z,100137.02
2023-05-16T11:52:41.211Z,100139.24
2023-05-16T11:55:11.159Z,100142.02
2023-05-16T11:57:39.354Z,100134.95
2023-05-16T12:00:15.277Z,100131.91
2023-05-16T12:02:43.870Z,100133.89
2023-05-16T12:05:11.842Z,100140.45
2023-05-16T12:07:39.217Z,100133.98
2023-05-16T12:10:09.792Z,100134.86
2023-05-16T12:12:37.682Z,100127.17
2023-05-16T12:15:06.903Z,100127.01
2023-05-16T12:17:35.393Z,100127.98
2023-05-16T12:20:06.049Z,100137.37
2023-05-16T12:22:36.619Z,100135.70
2023-05-16T12:25:22.983Z,100126.80
2023-05-16T12:27:50.966Z,100117.29
2023-05-16T12:30:19.245Z,100115.55
2023-05-16T12:32:46.700Z,100114.32
2023-05-16T12:35:14.878Z,100113.24
2023-05-16T12:37:44.102Z,100111.60
2023-05-16T12:40:13.608Z,100118.90
2023-05-16T12:42:53.572Z,100117.64
2023-05-16T12:45:22.715Z,100117.60
2023-05-16T12:47:50.258Z,100111.48
2023-05-16T12:50:20.505Z,100108.54
2023-05-16T12:52:52.274Z,100115.03
2023-05-16T12:55:20.858Z,100110.89
2023-05-16T12:57:49.090Z,100104.74
2023-05-16T13:00:21.923Z,100105.26
2023-05-16T13:02:49.490Z,100104.52
2023-05-16T13:05:18.203Z,100105.23
2023-05-16T13:07:45.660Z,100107.80
2023-05-16T13:10:13.621Z,100104.07
2023-05-16T13:12:41.313Z,100114.88
2023-05-16T13:15:10.607Z,100117.64
2023-05-16T13:17:44.280Z,100116.27
2023-05-16T13:20:15.527Z,100118.09
2023-05-16T13:22:43.562Z,100116.46
2023-05-16T13:25:11.306Z,100126.72
2023-05-16T13:27:38.326Z,100124.16
2023-05-16T13:30:05.879Z,100127.52
2023-05-16T13:32:33.002Z,100133.09
2023-05-16T13:34:59.926Z,100126.16
2023-05-16T13:37:27.481Z,100119.89
2023-05-16T13:39:55.116Z,100117.27
2023-05-16T13:42:22.686Z,100116.98
2023-05-16T13:44:50.415Z,100117.61
2023-05-16T13:47:17.966Z,100118.08
2023-05-16T13:49:45.793Z,100120.09
2023-05-16T13:52:13.315Z,100124.67
2023-05-16T13:54:41.754Z,100124.79
2023-05-16T13:57:09.172Z,100126.12
2023-05-16T14:02:07.333Z,100129.38
2023-05-16T14:04:35.017Z,100129.02
2023-05-16T14:07:02.491Z,100130.00
2023-05-16T14:09:30.120Z,100135.67
2023-05-16T14:11:57.558Z,100137.98
2023-05-16T14:14:25.131Z,100140.31
2023-05-16T14:16:52.968Z,100139.23
2023-05-16T14:19:20.553Z,100139.48
2023-05-16T14:21:48.191Z,100137.83
2023-05-16T14:24:15.471Z,100133.60
2023-05-16T14:26:42.733Z,100125.20
2023-05-16T14:29:10.124Z,100125.92
2023-05-16T14:31:37.855Z,100124.11
2023-05-16T14:34:05.755Z,100122.77
2023-05-16T14:36:33.206Z,100119.38
2023-05-16T14:39:00.821Z,100122.08
2023-05-16T14:41:28.400Z,100118.66
2023-05-16T14:43:56.419Z,100119.13
2023-05-16T14:46:24.025Z,100119.01
2023-05-16T14:48:52.128Z,100115.88
2023-05-16T14:51:19.807Z,100113.40
2023-05-16T14:53:47.587Z,100113.66
2023-05-16T14:56:14.867Z,100110.11
2023-05-16T14:58:42.213Z,100115.38
2023-05-16T15:01:11.003Z,100111.84
2023-05-16T15:03:53.793Z,100111.53
2023-05-16T15:06:23.796Z,100113.77
2023-05-16T15:08:51.724Z,100110.17
2023-05-16T15:11:19.673Z,100111.17
2023-05-16T15:13:48.438Z,100116.20
2023-05-16T15:16:16.877Z,100117.98
2023-05-16T15:18:44.620Z,100114.52
2023-05-16T15:21:12.332Z,100116.83
2023-05-16T15:23:39.726Z,100120.85
2023-05-16T15:26:07.144Z,100116.52
2023-05-16T15:28:34.655Z,100116.48
2023-05-16T15:31:03.782Z,100116.81
2023-05-16T15:33:31.360Z,100121.26
2023-05-16T15:35:58.845Z,100119.73
2023-05-16T15:38:26.489Z,100123.13
2023-05-16T15:41:06.071Z,100127.68
2023-05-16T15:43:40.900Z,100130.50
2023-05-16T15:46:08.611Z,100134.89
2023-05-16T15:48:36.522Z,100133.55
2023-05-16T15:51:04.496Z,100139.48
2023-05-16T15:53:31.799Z,100138.44
2023-05-16T15:55:59.235Z,100133.86
2023-05-16T15:58:26.640Z,100134.23
2023-05-16T16:00:55.419Z,100131.92
2023-05-16T16:03:23.104Z,100129.02
2023-05-16T16:05:51.738Z,100130.23
2023-05-16T16:08:20.308Z,100126.91
2023-05-16T16:10:47.802Z,100126.13
2023-05-16T16:13:15.428Z,100125.02
2023-05-16T16:15:42.944Z,100125.80
2023-05-16T16:18:11.985Z,100128.27
2023-05-16T16:20:39.572Z,100134.42
2023-05-16T16:23:06.930Z,100130.64
2023-05-16T16:25:34.406Z,100131.48
2023-05-16T16:28:01.928Z,100129.88
2023-05-16T16:30:29.394Z,100133.62
2023-05-16T16:32:56.771Z,100136.52
2023-05-16T16:35:26.445Z,100136.44
2023-05-16T16:38:05.499Z,100134.97
2023-05-16T16:40:34.111Z,100136.11
2023-05-16T16:43:01.759Z,100137.38
2023-05-16T16:45:29.338Z,100138.95
2023-05-16T16:47:56.981Z,100140.02
2023-05-16T16:50:25.576Z,100137.73
2023-05-16T16:52:54.231Z,100138.84
2023-05-16T16:55:21.728Z,100138.80
2023-05-16T16:57:49.215Z,100131.42
2023-05-16T17:00:17.409Z,100135.34
2023-05-16T17:02:44.992Z,100139.00
2023-05-16T17:05:12.717Z,100140.10
2023-05-16T17:07:40.091Z,100141.45
2023-05-16T17:10:08.133Z,100139.94
2023-05-16T17:12:35.740Z,100137.77
2023-05-16T17:15:03.679Z,100146.02
2023-05-16T17:17:31.274Z,100147.33
2023-05-16T17:19:58.969Z,100154.21
2023-05-16T17:22:26.705Z,100150.66
2023-05-16T17:24:54.084Z,100152.39
2023-05-16T17:27:21.566Z,100158.47
2023-05-16T17:29:48.821Z,100158.67
2023-05-16T17:32:17.616Z,100161.55
2023-05-16T17:34:45.341Z,100165.92
2023-05-16T17:37:12.755Z,100164.86
2023-05-16T17:39:40.094Z,100171.86
2023-05-16T17:42:07.891Z,100168.46
2023-05-16T17:44:36.725Z,100169.27
2023-05-16T17:47:04.372Z,100170.10
2023-05-16T17:49:31.866Z,100168.36
2023-05-16T17:51:59.460Z,100173.63
2023-05-16T17:54:30.871Z,100173.46
2023-05-16T17:56:58.851Z,100177.27
2023-05-16T17:59:27.624Z,100180.09
2023-05-16T18:01:56.351Z,100180.88
2023-05-16T18:04:24.172Z,100178.90
2023-05-16T18:06:54.771Z,100183.69
2023-05-16T18:09:22.384Z,100184.56
2023-05-16T18:11:50.665Z,100183.46
2023-05-16T18:14:18.089Z,100183.60
2023-05-16T18:16:45.467Z,100183.59
2023-05-16T18:19:13.233Z,100190.83
2023-05-16T18:21:41.188Z,100189.38
2023-05-16T18:24:09.695Z,100190.35
2023-05-16T18:26:38.294Z,100192.88
2023-05-16T18:29:05.869Z,100196.06
2023-05-16T18:31:34.433Z,100196.08
2023-05-16T18:34:02.010Z,100198.15
2023-05-16T18:36:30.067Z,100197.17
2023-05-16T18:38:57.506Z,100198.11
2023-05-16T18:41:25.088Z,100202.70
2023-05-16T18:43:52.573Z,100204.24
2023-05-16T18:46:20.141Z,100205.51
2023-05-16T18:48:47.510Z,100204.41
2023-05-16T18:51:14.912Z,100202.90
2023-05-16T18:53:42.511Z,100203.79
2023-05-16T18:56:09.942Z,100199.38
2023-05-16T18:58:37.679Z,100202.41
2023-05-16T19:01:05.550Z,100208.73
2023-05-16T19:03:33.027Z,100207.11
2023-05-16T19:06:00.757Z,100200.92
2023-05-16T19:08:36.728Z,100205.31
2023-05-16T19:11:14.356Z,100206.79
2023-05-16T19:13:41.960Z,100206.54
2023-05-16T19:16:09.601Z,100206.40
2023-05-16T19:18:37.497Z,100200.23
2023-05-16T19:21:05.341Z,100204.95
2023-05-16T19:23:32.884Z,100201.58
2023-05-16T19:26:00.734Z,100199.83
2023-05-16T19:28:28.144Z,100199.58
2023-05-16T19:30:55.552Z,100194.98
2023-05-16T19:33:23.076Z,100195.89
2023-05-16T19:35:53.051Z,100195.42
2023-05-16T19:38:20.562Z,100193.69
2023-05-16T19:40:47.946Z,100194.91
2023-05-16T19:43:15.617Z,100194.22
2023-05-16T19:45:43.317Z,100193.43
2023-05-16T19:48:11.013Z,100189.10
2023-05-16T19:50:38.480Z,100196.50
2023-05-16T19:53:05.812Z,100188.79
2023-05-16T19:55:35.156Z,100198.14
2023-05-16T19:58:04.160Z,100196.90
2023-05-16T20:00:31.497Z,100195.45
2023-05-16T20:02:59.848Z,100189.69
2023-05-16T20:05:27.564Z,100189.77
2023-05-16T20:07:56.206Z,100194.16
2023-05-16T20:10:24.010Z,100191.48
2023-05-16T20:12:51.613Z,100190.06
2023-05-16T20:15:19.083Z,100192.54
2023-05-16T20:17:46.570Z,100188.98
2023-05-16T20:20:14.131Z,100183.50
2023-05-16T20:22:42.171Z,100182.09
2023-05-16T20:25:10.495Z,100184.35
2023-05-16T20:27:38.272Z,100181.43
2023-05-16T20:30:07.146Z,100187.35
2023-05-16T20:32:35.101Z,100183.43
2023-05-16T20:35:04.634Z,100180.77
2023-05-16T20:37:32.060Z,100179.42
2023-05-16T20:39:59.506Z,100178.98
2023-05-16T20:42:26.791Z,100175.71
2023-05-16T20:44:54.276Z,100175.46
2023-05-16T20:47:21.684Z,100175.31
2023-05-16T20:49:49.015Z,100175.43
2023-05-16T20:52:16.458Z,100175.17
2023-05-16T20:54:44.197Z,100175.62
2023-05-16T20:57:11.874Z,100173.17
2023-05-16T20:59:39.599Z,100169.34
2023-05-16T21:02:09.978Z,100165.38
2023-05-16T21:04:38.122Z,100161.49
2023-05-16T21:07:08.122Z,100163.77
2023-05-16T21:09:38.093Z,100159.88
2023-05-16T21:12:05.942Z,100158.80
2023-05-16T21:14:33.414Z,100159.91
2023-05-16T21:17:00.875Z,100157.23
2023-05-16T21:19:30.433Z,100156.66
2023-05-16T21:21:57.976Z,100156.52
2023-05-16T21:24:25.537Z,100153.95
2023-05-16T21:26:52.820Z,100160.46
2023-05-16T21:29:20.222Z,100159.86
2023-05-16T21:31:47.830Z,100159.66
2023-05-16T21:34:15.315Z,100160.56
2023-05-16T21:36:42.629Z,100159.70
2023-05-16T21:39:09.994Z,100158.21
2023-05-16T21:41:37.500Z,100151.77
2023-05-16T21:44:04.998Z,100153.38
2023-05-16T21:46:32.348Z,100152.04
2023-05-16T21:48:59.802Z,100153.80
2023-05-16T21:51:27.415Z,100152.84
2023-05-16T21:53:54.847Z,100147.13
2023-05-16T21:56:23.006Z,100144.20
2023-05-16T21:58:50.437Z,100146.46
2023-05-16T22:01:20.282Z,100144.74
2023-05-16T22:03:47.837Z,100146.81
2023-05-16T22:06:15.209Z,100138.34
2023-05-16T22:08:42.546Z,100137.97
2023-05-16T22:11:09.905Z,100137.17
2023-05-16T22:13:37.345Z,100135.20
2023-05-16T22:16:05.541Z,100135.70
2023-05-16T22:18:33.715Z,100137.62
2023-05-16T22:21:01.861Z,100136.92
2023-05-16T22:23:29.303Z,100137.96
2023-05-16T22:25:56.602Z,100134.89
2023-05-16T22:28:23.980Z,100137.66
2023-05-16T22:30:51.406Z,100137.04
2023-05-16T22:33:18.895Z,100138.16
2023-05-16T22:35:46.391Z,100135.41
2023-05-16T22:38:13.872Z,100137.18
2023-05-16T22:40:41.496Z,100139.98
2023-05-16T22:43:09.124Z,100140.42
2023-05-16T22:45:36.513Z,100144.27
2023-05-16T22:48:04.353Z,100143.02
2023-05-16T22:50:31.819Z,100146.39
2023-05-16T22:52:59.328Z,100143.48
2023-05-16T22:55:26.781Z,100145.97
2023-05-16T22:57:57.358Z,100143.11
2023-05-16T23:00:24.741Z,100144.61
2023-05-16T23:02:52.346Z,100144.73
2023-05-16T23:05:19.725Z,100142.13
2023-05-16T23:07:47.177Z,100141.09
2023-05-16T23:10:14.681Z,100137.66
2023-05-16T23:12:42.211Z,100139.20
2023-05-16T23:15:10.655Z,100138.59
2023-05-16T23:17:39.220Z,100136.45
2023-05-16T23:20:07.667Z,100141.52
2023-05-16T23:22:35.301Z,100143.70
2023-05-16T23:25:02.931Z,100144.66
2023-05-16T23:27:30.671Z,100145.48
2023-05-16T23:29:58.492Z,100148.55
2023-05-16T23:32:26.060Z,100147.25
2023-05-16T23:34:53.625Z,100144.64
2023-05-16T23:37:21.175Z,100148.84
2023-05-16T23:39:48.777Z,100147.83
2023-05-16T23:42:16.185Z,100146.54
2023-05-16T23:44:43.709Z,100146.42
2023-05-16T23:47:11.351Z,100149.55
2023-05-16T23:49:38.792Z,100147.55
2023-05-16T23:52:06.510Z,100149.39
2023-05-16T23:54:34.331Z,100148.28
2023-05-16T23:57:01.766Z,100149.80
2023-05-16T23:59:29.004Z,100149.03
